sensor_id;sensor_type;location;lat;lon;timestamp;P1;durP1;ratioP1;P2;durP2;ratioP2
80115;SDS011;69423;47.608;19.366;2024-01-07T00:00:21;17.07;;;16.80;;
80115;SDS011;69423;47.608;19.366;2024-01-07T00:00:52;14.70;;;14.50;;
80115;SDS011;69423;47.608;19.366;2024-01-07T00:01:23;16.13;;;15.93;;
80115;SDS011;69423;47.608;19.366;2024-01-07T00:01:54;18.37;;;18.00;;
80115;SDS011;69423;47.608;19.366;2024-01-07T00:02:25;22.67;;;22.33;;
80115;SDS011;69423;47.608;19.366;2024-01-07T00:02:56;21.67;;;21.23;;
80115;SDS011;69423;47.608;19.366;2024-01-07T00:03:27;20.70;;;20.13;;
80115;SDS011;69423;47.608;19.366;2024-01-07T00:03:58;18.13;;;17.80;;
80115;SDS011;69423;47.608;19.366;2024-01-07T00:04:29;15.07;;;14.83;;
80115;SDS011;69423;47.608;19.366;2024-01-07T00:05:00;14.37;;;14.13;;
80115;SDS011;69423;47.608;19.366;2024-01-07T00:05:32;14.77;;;14.57;;
80115;SDS011;69423;47.608;19.366;2024-01-07T00:06:03;22.27;;;21.97;;
80115;SDS011;69423;47.608;19.366;2024-01-07T00:06:34;23.77;;;23.37;;
80115;SDS011;69423;47.608;19.366;2024-01-07T00:07:05;24.83;;;24.27;;
80115;SDS011;69423;47.608;19.366;2024-01-07T00:07:36;22.40;;;21.67;;
80115;SDS011;69423;47.608;19.366;2024-01-07T00:08:07;18.37;;;17.53;;
80115;SDS011;69423;47.608;19.366;2024-01-07T00:08:39;14.90;;;14.33;;
80115;SDS011;69423;47.608;19.366;2024-01-07T00:09:12;14.67;;;14.27;;
80115;SDS011;69423;47.608;19.366;2024-01-07T00:09:43;15.60;;;15.20;;
80115;SDS011;69423;47.608;19.366;2024-01-07T00:10:14;16.13;;;15.83;;
80115;SDS011;69423;47.608;19.366;2024-01-07T00:10:45;17.27;;;16.97;;
80115;SDS011;69423;47.608;19.366;2024-01-07T00:11:16;15.13;;;14.87;;
80115;SDS011;69423;47.608;19.366;2024-01-07T00:11:47;19.33;;;19.03;;
80115;SDS011;69423;47.608;19.366;2024-01-07T00:12:19;27.87;;;27.07;;
80115;SDS011;69423;47.608;19.366;2024-01-07T00:12:50;20.47;;;19.87;;
80115;SDS011;69423;47.608;19.366;2024-01-07T00:13:22;19.87;;;19.27;;
80115;SDS011;69423;47.608;19.366;2024-01-07T00:13:53;19.27;;;18.67;;
80115;SDS011;69423;47.608;19.366;2024-01-07T00:14:24;16.03;;;15.53;;
80115;SDS011;69423;47.608;19.366;2024-01-07T00:14:55;15.20;;;14.80;;
80115;SDS011;69423;47.608;19.366;2024-01-07T00:15:26;14.63;;;14.30;;
80115;SDS011;69423;47.608;19.366;2024-01-07T00:15:58;15.43;;;15.27;;
80115;SDS011;69423;47.608;19.366;2024-01-07T00:16:29;14.40;;;14.10;;
80115;SDS011;69423;47.608;19.366;2024-01-07T00:17:00;14.20;;;13.97;;
80115;SDS011;69423;47.608;19.366;2024-01-07T00:17:31;14.37;;;14.17;;
80115;SDS011;69423;47.608;19.366;2024-01-07T00:18:02;18.77;;;18.40;;
80115;SDS011;69423;47.608;19.366;2024-01-07T00:18:33;19.20;;;18.83;;
80115;SDS011;69423;47.608;19.366;2024-01-07T00:19:04;16.97;;;16.57;;
80115;SDS011;69423;47.608;19.366;2024-01-07T00:19:35;21.03;;;20.63;;
80115;SDS011;69423;47.608;19.366;2024-01-07T00:20:08;18.40;;;18.07;;
80115;SDS011;69423;47.608;19.366;2024-01-07T00:20:39;17.30;;;17.00;;
80115;SDS011;69423;47.608;19.366;2024-01-07T00:21:10;20.73;;;20.33;;
80115;SDS011;69423;47.608;19.366;2024-01-07T00:21:41;16.43;;;16.13;;
80115;SDS011;69423;47.608;19.366;2024-01-07T00:22:12;15.80;;;15.63;;
80115;SDS011;69423;47.608;19.366;2024-01-07T00:22:43;17.07;;;16.80;;
80115;SDS011;69423;47.608;19.366;2024-01-07T00:23:14;16.20;;;16.10;;
80115;SDS011;69423;47.608;19.366;2024-01-07T00:23:45;16.17;;;16.10;;
80115;SDS011;69423;47.608;19.366;2024-01-07T00:24:16;13.70;;;13.57;;
80115;SDS011;69423;47.608;19.366;2024-01-07T00:24:47;14.60;;;14.40;;
80115;SDS011;69423;47.608;19.366;2024-01-07T00:25:18;14.13;;;13.93;;
80115;SDS011;69423;47.608;19.366;2024-01-07T00:25:49;17.10;;;16.80;;
80115;SDS011;69423;47.608;19.366;2024-01-07T00:26:20;21.87;;;21.27;;
80115;SDS011;69423;47.608;19.366;2024-01-07T00:26:51;19.03;;;18.53;;
80115;SDS011;69423;47.608;19.366;2024-01-07T00:27:22;20.63;;;20.03;;
80115;SDS011;69423;47.608;19.366;2024-01-07T00:27:53;20.63;;;19.87;;
80115;SDS011;69423;47.608;19.366;2024-01-07T00:28:25;18.17;;;17.70;;
80115;SDS011;69423;47.608;19.366;2024-01-07T00:28:56;20.70;;;20.27;;
80115;SDS011;69423;47.608;19.366;2024-01-07T00:29:27;24.53;;;23.93;;
80115;SDS011;69423;47.608;19.366;2024-01-07T00:29:59;24.20;;;23.67;;
80115;SDS011;69423;47.608;19.366;2024-01-07T00:30:30;17.07;;;16.87;;
80115;SDS011;69423;47.608;19.366;2024-01-07T00:31:01;16.40;;;16.37;;
80115;SDS011;69423;47.608;19.366;2024-01-07T00:31:32;16.27;;;16.20;;
80115;SDS011;69423;47.608;19.366;2024-01-07T00:32:03;15.83;;;15.73;;
80115;SDS011;69423;47.608;19.366;2024-01-07T00:32:34;17.47;;;17.23;;
80115;SDS011;69423;47.608;19.366;2024-01-07T00:33:05;22.83;;;22.60;;
80115;SDS011;69423;47.608;19.366;2024-01-07T00:33:36;22.77;;;22.57;;
80115;SDS011;69423;47.608;19.366;2024-01-07T00:34:08;17.90;;;17.70;;
80115;SDS011;69423;47.608;19.366;2024-01-07T00:34:39;17.57;;;17.33;;
80115;SDS011;69423;47.608;19.366;2024-01-07T00:35:10;16.97;;;16.67;;
80115;SDS011;69423;47.608;19.366;2024-01-07T00:35:41;16.07;;;15.73;;
80115;SDS011;69423;47.608;19.366;2024-01-07T00:36:12;17.10;;;16.70;;
80115;SDS011;69423;47.608;19.366;2024-01-07T00:36:43;16.40;;;16.07;;
80115;SDS011;69423;47.608;19.366;2024-01-07T00:37:14;30.10;;;29.37;;
80115;SDS011;69423;47.608;19.366;2024-01-07T00:37:45;29.83;;;28.93;;
80115;SDS011;69423;47.608;19.366;2024-01-07T00:38:16;21.50;;;20.90;;
80115;SDS011;69423;47.608;19.366;2024-01-07T00:38:47;18.57;;;18.20;;
80115;SDS011;69423;47.608;19.366;2024-01-07T00:39:18;17.83;;;17.50;;
80115;SDS011;69423;47.608;19.366;2024-01-07T00:39:49;17.60;;;17.27;;
80115;SDS011;69423;47.608;19.366;2024-01-07T00:40:20;17.67;;;17.23;;
80115;SDS011;69423;47.608;19.366;2024-01-07T00:40:51;16.07;;;15.67;;
80115;SDS011;69423;47.608;19.366;2024-01-07T00:41:22;17.03;;;16.63;;
80115;SDS011;69423;47.608;19.366;2024-01-07T00:41:55;18.40;;;18.10;;
80115;SDS011;69423;47.608;19.366;2024-01-07T00:42:26;17.93;;;17.83;;
80115;SDS011;69423;47.608;19.366;2024-01-07T00:42:57;17.20;;;16.90;;
80115;SDS011;69423;47.608;19.366;2024-01-07T00:43:28;15.97;;;15.70;;
80115;SDS011;69423;47.608;19.366;2024-01-07T00:43:59;16.83;;;16.50;;
80115;SDS011;69423;47.608;19.366;2024-01-07T00:44:30;17.93;;;17.50;;
80115;SDS011;69423;47.608;19.366;2024-01-07T00:45:01;17.60;;;17.27;;
80115;SDS011;69423;47.608;19.366;2024-01-07T00:45:32;16.37;;;16.07;;
80115;SDS011;69423;47.608;19.366;2024-01-07T00:46:03;15.20;;;14.97;;
80115;SDS011;69423;47.608;19.366;2024-01-07T00:46:34;15.27;;;15.10;;
80115;SDS011;69423;47.608;19.366;2024-01-07T00:47:05;15.13;;;14.93;;
80115;SDS011;69423;47.608;19.366;2024-01-07T00:47:36;15.07;;;14.97;;
80115;SDS011;69423;47.608;19.366;2024-01-07T00:48:07;14.93;;;14.90;;
80115;SDS011;69423;47.608;19.366;2024-01-07T00:48:38;14.57;;;14.53;;
80115;SDS011;69423;47.608;19.366;2024-01-07T00:49:09;15.17;;;14.93;;
80115;SDS011;69423;47.608;19.366;2024-01-07T00:49:40;15.70;;;15.20;;
80115;SDS011;69423;47.608;19.366;2024-01-07T00:50:12;16.57;;;15.87;;
80115;SDS011;69423;47.608;19.366;2024-01-07T00:50:43;15.17;;;14.63;;
80115;SDS011;69423;47.608;19.366;2024-01-07T00:51:14;14.33;;;13.90;;
80115;SDS011;69423;47.608;19.366;2024-01-07T00:51:45;14.53;;;14.23;;
80115;SDS011;69423;47.608;19.366;2024-01-07T00:52:16;17.27;;;17.03;;
80115;SDS011;69423;47.608;19.366;2024-01-07T00:52:47;15.23;;;15.20;;
80115;SDS011;69423;47.608;19.366;2024-01-07T00:53:18;14.43;;;14.33;;
80115;SDS011;69423;47.608;19.366;2024-01-07T00:53:49;14.00;;;13.87;;
80115;SDS011;69423;47.608;19.366;2024-01-07T00:54:20;13.77;;;13.50;;
80115;SDS011;69423;47.608;19.366;2024-01-07T00:54:51;13.47;;;13.20;;
80115;SDS011;69423;47.608;19.366;2024-01-07T00:55:22;13.80;;;13.57;;
80115;SDS011;69423;47.608;19.366;2024-01-07T00:55:54;16.67;;;16.37;;
80115;SDS011;69423;47.608;19.366;2024-01-07T00:56:25;17.60;;;17.27;;
80115;SDS011;69423;47.608;19.366;2024-01-07T00:56:57;15.00;;;14.70;;
80115;SDS011;69423;47.608;19.366;2024-01-07T00:57:28;14.27;;;14.00;;
80115;SDS011;69423;47.608;19.366;2024-01-07T00:57:59;13.90;;;13.63;;
80115;SDS011;69423;47.608;19.366;2024-01-07T00:58:30;14.20;;;13.90;;
80115;SDS011;69423;47.608;19.366;2024-01-07T00:59:01;13.60;;;13.30;;
80115;SDS011;69423;47.608;19.366;2024-01-07T00:59:32;14.13;;;13.83;;
80115;SDS011;69423;47.608;19.366;2024-01-07T01:00:06;14.10;;;13.80;;
80115;SDS011;69423;47.608;19.366;2024-01-07T01:00:38;13.67;;;13.53;;
80115;SDS011;69423;47.608;19.366;2024-01-07T01:01:09;15.23;;;15.07;;
80115;SDS011;69423;47.608;19.366;2024-01-07T01:01:40;15.77;;;15.40;;
80115;SDS011;69423;47.608;19.366;2024-01-07T01:02:11;20.73;;;20.20;;
80115;SDS011;69423;47.608;19.366;2024-01-07T01:02:42;21.87;;;21.27;;
80115;SDS011;69423;47.608;19.366;2024-01-07T01:03:13;19.37;;;18.87;;
80115;SDS011;69423;47.608;19.366;2024-01-07T01:03:44;20.83;;;20.40;;
80115;SDS011;69423;47.608;19.366;2024-01-07T01:04:15;19.60;;;19.17;;
80115;SDS011;69423;47.608;19.366;2024-01-07T01:04:46;15.47;;;15.13;;
80115;SDS011;69423;47.608;19.366;2024-01-07T01:05:17;14.10;;;13.87;;
80115;SDS011;69423;47.608;19.366;2024-01-07T01:05:48;15.00;;;14.73;;
80115;SDS011;69423;47.608;19.366;2024-01-07T01:06:19;13.63;;;13.40;;
80115;SDS011;69423;47.608;19.366;2024-01-07T01:06:50;12.60;;;12.33;;
80115;SDS011;69423;47.608;19.366;2024-01-07T01:07:21;13.67;;;13.33;;
80115;SDS011;69423;47.608;19.366;2024-01-07T01:07:52;13.37;;;13.00;;
80115;SDS011;69423;47.608;19.366;2024-01-07T01:08:23;13.67;;;13.33;;
80115;SDS011;69423;47.608;19.366;2024-01-07T01:08:54;13.70;;;13.53;;
80115;SDS011;69423;47.608;19.366;2024-01-07T01:09:27;14.83;;;14.60;;
80115;SDS011;69423;47.608;19.366;2024-01-07T01:09:59;14.97;;;14.73;;
80115;SDS011;69423;47.608;19.366;2024-01-07T01:10:30;15.60;;;15.40;;
80115;SDS011;69423;47.608;19.366;2024-01-07T01:11:01;16.43;;;16.23;;
80115;SDS011;69423;47.608;19.366;2024-01-07T01:11:32;14.70;;;14.50;;
80115;SDS011;69423;47.608;19.366;2024-01-07T01:12:03;14.70;;;14.47;;
80115;SDS011;69423;47.608;19.366;2024-01-07T01:12:34;21.27;;;21.00;;
80115;SDS011;69423;47.608;19.366;2024-01-07T01:13:05;23.57;;;23.20;;
80115;SDS011;69423;47.608;19.366;2024-01-07T01:13:36;21.07;;;20.60;;
80115;SDS011;69423;47.608;19.366;2024-01-07T01:14:07;16.23;;;15.90;;
80115;SDS011;69423;47.608;19.366;2024-01-07T01:14:38;13.27;;;13.07;;
80115;SDS011;69423;47.608;19.366;2024-01-07T01:15:09;15.30;;;15.00;;
80115;SDS011;69423;47.608;19.366;2024-01-07T01:15:40;22.60;;;22.10;;
80115;SDS011;69423;47.608;19.366;2024-01-07T01:16:11;36.23;;;35.33;;
80115;SDS011;69423;47.608;19.366;2024-01-07T01:16:42;43.40;;;42.27;;
80115;SDS011;69423;47.608;19.366;2024-01-07T01:17:13;37.40;;;36.57;;
80115;SDS011;69423;47.608;19.366;2024-01-07T01:17:45;28.80;;;28.23;;
80115;SDS011;69423;47.608;19.366;2024-01-07T01:18:16;19.97;;;19.50;;
80115;SDS011;69423;47.608;19.366;2024-01-07T01:18:47;32.00;;;31.20;;
80115;SDS011;69423;47.608;19.366;2024-01-07T01:19:18;38.50;;;37.40;;
80115;SDS011;69423;47.608;19.366;2024-01-07T01:19:49;32.17;;;30.97;;
80115;SDS011;69423;47.608;19.366;2024-01-07T01:20:20;26.07;;;25.07;;
80115;SDS011;69423;47.608;19.366;2024-01-07T01:20:51;22.97;;;22.07;;
80115;SDS011;69423;47.608;19.366;2024-01-07T01:21:22;16.90;;;16.27;;
80115;SDS011;69423;47.608;19.366;2024-01-07T01:21:53;16.80;;;16.23;;
80115;SDS011;69423;47.608;19.366;2024-01-07T01:22:24;20.50;;;19.80;;
80115;SDS011;69423;47.608;19.366;2024-01-07T01:22:55;15.00;;;14.67;;
80115;SDS011;69423;47.608;19.366;2024-01-07T01:23:26;26.43;;;25.60;;
80115;SDS011;69423;47.608;19.366;2024-01-07T01:23:57;56.47;;;53.90;;
80115;SDS011;69423;47.608;19.366;2024-01-07T01:24:29;57.30;;;54.53;;
80115;SDS011;69423;47.608;19.366;2024-01-07T01:25:00;44.60;;;42.60;;
80115;SDS011;69423;47.608;19.366;2024-01-07T01:25:32;17.40;;;16.67;;
80115;SDS011;69423;47.608;19.366;2024-01-07T01:26:03;11.47;;;11.07;;
80115;SDS011;69423;47.608;19.366;2024-01-07T01:26:34;11.57;;;11.23;;
80115;SDS011;69423;47.608;19.366;2024-01-07T01:27:05;10.63;;;10.43;;
80115;SDS011;69423;47.608;19.366;2024-01-07T01:27:36;15.67;;;15.30;;
80115;SDS011;69423;47.608;19.366;2024-01-07T01:28:07;14.60;;;14.20;;
80115;SDS011;69423;47.608;19.366;2024-01-07T01:28:39;10.87;;;10.70;;
80115;SDS011;69423;47.608;19.366;2024-01-07T01:29:10;9.57;;;9.53;;
80115;SDS011;69423;47.608;19.366;2024-01-07T01:29:41;9.90;;;9.83;;
80115;SDS011;69423;47.608;19.366;2024-01-07T01:30:13;9.57;;;9.53;;
80115;SDS011;69423;47.608;19.366;2024-01-07T01:30:44;10.17;;;10.17;;
80115;SDS011;69423;47.608;19.366;2024-01-07T01:31:15;10.93;;;10.90;;
80115;SDS011;69423;47.608;19.366;2024-01-07T01:31:46;11.43;;;11.33;;
80115;SDS011;69423;47.608;19.366;2024-01-07T01:32:17;10.90;;;10.67;;
80115;SDS011;69423;47.608;19.366;2024-01-07T01:32:48;11.53;;;11.47;;
80115;SDS011;69423;47.608;19.366;2024-01-07T01:33:19;10.23;;;10.23;;
80115;SDS011;69423;47.608;19.366;2024-01-07T01:33:50;9.50;;;9.50;;
80115;SDS011;69423;47.608;19.366;2024-01-07T01:34:21;10.03;;;10.00;;
80115;SDS011;69423;47.608;19.366;2024-01-07T01:34:52;10.20;;;10.00;;
80115;SDS011;69423;47.608;19.366;2024-01-07T01:35:23;10.50;;;10.20;;
80115;SDS011;69423;47.608;19.366;2024-01-07T01:35:54;11.17;;;10.87;;
80115;SDS011;69423;47.608;19.366;2024-01-07T01:36:25;11.27;;;11.03;;
80115;SDS011;69423;47.608;19.366;2024-01-07T01:36:57;10.57;;;10.37;;
80115;SDS011;69423;47.608;19.366;2024-01-07T01:37:28;10.93;;;10.77;;
80115;SDS011;69423;47.608;19.366;2024-01-07T01:37:59;10.13;;;10.13;;
80115;SDS011;69423;47.608;19.366;2024-01-07T01:38:30;10.57;;;10.53;;
80115;SDS011;69423;47.608;19.366;2024-01-07T01:39:01;10.60;;;10.57;;
80115;SDS011;69423;47.608;19.366;2024-01-07T01:39:32;10.93;;;10.83;;
80115;SDS011;69423;47.608;19.366;2024-01-07T01:40:03;10.57;;;10.37;;
80115;SDS011;69423;47.608;19.366;2024-01-07T01:40:35;11.00;;;10.73;;
80115;SDS011;69423;47.608;19.366;2024-01-07T01:41:06;13.60;;;13.13;;
80115;SDS011;69423;47.608;19.366;2024-01-07T01:41:37;13.30;;;12.87;;
80115;SDS011;69423;47.608;19.366;2024-01-07T01:42:08;12.73;;;12.33;;
80115;SDS011;69423;47.608;19.366;2024-01-07T01:42:42;12.27;;;11.90;;
80115;SDS011;69423;47.608;19.366;2024-01-07T01:43:21;11.33;;;11.03;;
80115;SDS011;69423;47.608;19.366;2024-01-07T01:43:57;10.83;;;10.63;;
80115;SDS011;69423;47.608;19.366;2024-01-07T01:44:29;12.63;;;12.40;;
80115;SDS011;69423;47.608;19.366;2024-01-07T01:45:00;13.40;;;13.27;;
80115;SDS011;69423;47.608;19.366;2024-01-07T01:45:32;11.97;;;11.87;;
80115;SDS011;69423;47.608;19.366;2024-01-07T01:46:03;11.90;;;11.73;;
80115;SDS011;69423;47.608;19.366;2024-01-07T01:46:34;11.50;;;11.50;;
80115;SDS011;69423;47.608;19.366;2024-01-07T01:47:05;11.43;;;11.33;;
80115;SDS011;69423;47.608;19.366;2024-01-07T01:47:37;12.80;;;12.63;;
80115;SDS011;69423;47.608;19.366;2024-01-07T01:48:08;13.23;;;13.20;;
80115;SDS011;69423;47.608;19.366;2024-01-07T01:48:40;12.33;;;12.33;;
80115;SDS011;69423;47.608;19.366;2024-01-07T01:49:13;11.30;;;11.30;;
80115;SDS011;69423;47.608;19.366;2024-01-07T01:49:45;10.93;;;10.93;;
80115;SDS011;69423;47.608;19.366;2024-01-07T01:50:16;10.80;;;10.77;;
80115;SDS011;69423;47.608;19.366;2024-01-07T01:50:48;10.93;;;10.90;;
80115;SDS011;69423;47.608;19.366;2024-01-07T01:51:20;11.03;;;11.03;;
80115;SDS011;69423;47.608;19.366;2024-01-07T01:51:51;10.97;;;10.97;;
80115;SDS011;69423;47.608;19.366;2024-01-07T01:52:23;11.43;;;11.37;;
80115;SDS011;69423;47.608;19.366;2024-01-07T01:52:55;10.90;;;10.67;;
80115;SDS011;69423;47.608;19.366;2024-01-07T01:53:26;10.60;;;10.30;;
80115;SDS011;69423;47.608;19.366;2024-01-07T01:53:57;10.87;;;10.57;;
80115;SDS011;69423;47.608;19.366;2024-01-07T01:54:30;11.20;;;10.90;;
80115;SDS011;69423;47.608;19.366;2024-01-07T01:55:02;10.60;;;10.37;;
80115;SDS011;69423;47.608;19.366;2024-01-07T01:55:33;10.97;;;10.80;;
80115;SDS011;69423;47.608;19.366;2024-01-07T01:56:04;11.13;;;10.90;;
80115;SDS011;69423;47.608;19.366;2024-01-07T01:56:36;10.27;;;10.27;;
80115;SDS011;69423;47.608;19.366;2024-01-07T01:57:07;10.37;;;10.20;;
80115;SDS011;69423;47.608;19.366;2024-01-07T01:57:47;10.80;;;10.53;;
80115;SDS011;69423;47.608;19.366;2024-01-07T01:58:19;10.67;;;10.47;;
80115;SDS011;69423;47.608;19.366;2024-01-07T01:58:51;10.10;;;9.97;;
80115;SDS011;69423;47.608;19.366;2024-01-07T01:59:22;10.03;;;10.03;;
80115;SDS011;69423;47.608;19.366;2024-01-07T01:59:54;9.90;;;9.90;;
80115;SDS011;69423;47.608;19.366;2024-01-07T02:00:26;9.70;;;9.67;;
80115;SDS011;69423;47.608;19.366;2024-01-07T02:00:58;10.23;;;10.20;;
80115;SDS011;69423;47.608;19.366;2024-01-07T02:01:29;10.27;;;10.27;;
80115;SDS011;69423;47.608;19.366;2024-01-07T02:02:01;10.67;;;10.63;;
80115;SDS011;69423;47.608;19.366;2024-01-07T02:02:32;10.10;;;10.10;;
80115;SDS011;69423;47.608;19.366;2024-01-07T02:03:06;9.97;;;9.87;;
80115;SDS011;69423;47.608;19.366;2024-01-07T02:03:37;10.93;;;10.67;;
80115;SDS011;69423;47.608;19.366;2024-01-07T02:04:08;10.80;;;10.47;;
80115;SDS011;69423;47.608;19.366;2024-01-07T02:04:41;9.67;;;9.43;;
80115;SDS011;69423;47.608;19.366;2024-01-07T02:05:12;9.50;;;9.40;;
80115;SDS011;69423;47.608;19.366;2024-01-07T02:05:44;9.87;;;9.87;;
80115;SDS011;69423;47.608;19.366;2024-01-07T02:06:16;9.60;;;9.60;;
80115;SDS011;69423;47.608;19.366;2024-01-07T02:06:47;9.40;;;9.33;;
80115;SDS011;69423;47.608;19.366;2024-01-07T02:07:18;10.20;;;9.97;;
80115;SDS011;69423;47.608;19.366;2024-01-07T02:07:49;10.10;;;9.80;;
80115;SDS011;69423;47.608;19.366;2024-01-07T02:08:20;9.67;;;9.43;;
80115;SDS011;69423;47.608;19.366;2024-01-07T02:08:52;10.00;;;9.73;;
80115;SDS011;69423;47.608;19.366;2024-01-07T02:09:23;10.07;;;9.77;;
80115;SDS011;69423;47.608;19.366;2024-01-07T02:09:54;9.03;;;8.77;;
80115;SDS011;69423;47.608;19.366;2024-01-07T02:10:25;9.17;;;8.97;;
80115;SDS011;69423;47.608;19.366;2024-01-07T02:10:56;9.37;;;9.07;;
80115;SDS011;69423;47.608;19.366;2024-01-07T02:11:27;9.50;;;9.27;;
80115;SDS011;69423;47.608;19.366;2024-01-07T02:12:04;9.83;;;9.60;;
80115;SDS011;69423;47.608;19.366;2024-01-07T02:12:36;9.57;;;9.50;;
80115;SDS011;69423;47.608;19.366;2024-01-07T02:13:07;9.10;;;8.90;;
80115;SDS011;69423;47.608;19.366;2024-01-07T02:13:38;8.97;;;8.70;;
80115;SDS011;69423;47.608;19.366;2024-01-07T02:14:09;9.80;;;9.47;;
80115;SDS011;69423;47.608;19.366;2024-01-07T02:14:40;8.97;;;8.77;;
80115;SDS011;69423;47.608;19.366;2024-01-07T02:15:11;9.30;;;9.13;;
80115;SDS011;69423;47.608;19.366;2024-01-07T02:15:43;9.23;;;9.23;;
80115;SDS011;69423;47.608;19.366;2024-01-07T02:16:14;9.03;;;9.00;;
80115;SDS011;69423;47.608;19.366;2024-01-07T02:16:45;9.30;;;9.27;;
80115;SDS011;69423;47.608;19.366;2024-01-07T02:17:17;9.73;;;9.63;;
80115;SDS011;69423;47.608;19.366;2024-01-07T02:17:49;9.70;;;9.67;;
80115;SDS011;69423;47.608;19.366;2024-01-07T02:18:20;9.57;;;9.47;;
80115;SDS011;69423;47.608;19.366;2024-01-07T02:18:51;9.33;;;9.27;;
80115;SDS011;69423;47.608;19.366;2024-01-07T02:19:22;8.97;;;8.93;;
80115;SDS011;69423;47.608;19.366;2024-01-07T02:19:53;8.87;;;8.67;;
80115;SDS011;69423;47.608;19.366;2024-01-07T02:20:24;9.53;;;9.23;;
80115;SDS011;69423;47.608;19.366;2024-01-07T02:20:55;9.57;;;9.33;;
80115;SDS011;69423;47.608;19.366;2024-01-07T02:21:26;9.53;;;9.37;;
80115;SDS011;69423;47.608;19.366;2024-01-07T02:21:57;9.00;;;8.97;;
80115;SDS011;69423;47.608;19.366;2024-01-07T02:22:28;8.93;;;8.93;;
80115;SDS011;69423;47.608;19.366;2024-01-07T02:22:59;9.77;;;9.77;;
80115;SDS011;69423;47.608;19.366;2024-01-07T02:23:30;10.10;;;10.10;;
80115;SDS011;69423;47.608;19.366;2024-01-07T02:24:03;9.27;;;9.27;;
80115;SDS011;69423;47.608;19.366;2024-01-07T02:24:34;8.63;;;8.63;;
80115;SDS011;69423;47.608;19.366;2024-01-07T02:25:05;9.53;;;9.53;;
80115;SDS011;69423;47.608;19.366;2024-01-07T02:25:37;10.37;;;10.27;;
80115;SDS011;69423;47.608;19.366;2024-01-07T02:26:08;9.40;;;9.40;;
80115;SDS011;69423;47.608;19.366;2024-01-07T02:26:39;9.37;;;9.27;;
80115;SDS011;69423;47.608;19.366;2024-01-07T02:27:10;9.43;;;9.17;;
80115;SDS011;69423;47.608;19.366;2024-01-07T02:27:41;8.97;;;8.87;;
80115;SDS011;69423;47.608;19.366;2024-01-07T02:28:12;8.80;;;8.67;;
80115;SDS011;69423;47.608;19.366;2024-01-07T02:28:43;9.40;;;9.40;;
80115;SDS011;69423;47.608;19.366;2024-01-07T02:29:14;9.10;;;9.03;;
80115;SDS011;69423;47.608;19.366;2024-01-07T02:29:45;9.47;;;9.47;;
80115;SDS011;69423;47.608;19.366;2024-01-07T02:30:16;9.00;;;9.00;;
80115;SDS011;69423;47.608;19.366;2024-01-07T02:30:48;9.03;;;9.03;;
80115;SDS011;69423;47.608;19.366;2024-01-07T02:31:19;9.57;;;9.53;;
80115;SDS011;69423;47.608;19.366;2024-01-07T02:31:50;9.10;;;8.93;;
80115;SDS011;69423;47.608;19.366;2024-01-07T02:32:21;10.13;;;9.80;;
80115;SDS011;69423;47.608;19.366;2024-01-07T02:32:52;10.40;;;10.03;;
80115;SDS011;69423;47.608;19.366;2024-01-07T02:33:23;10.10;;;9.83;;
80115;SDS011;69423;47.608;19.366;2024-01-07T02:33:54;9.50;;;9.43;;
80115;SDS011;69423;47.608;19.366;2024-01-07T02:34:25;9.90;;;9.87;;
80115;SDS011;69423;47.608;19.366;2024-01-07T02:34:56;10.77;;;10.63;;
80115;SDS011;69423;47.608;19.366;2024-01-07T02:35:27;10.30;;;10.07;;
80115;SDS011;69423;47.608;19.366;2024-01-07T02:35:58;9.83;;;9.73;;
80115;SDS011;69423;47.608;19.366;2024-01-07T02:36:29;10.20;;;10.20;;
80115;SDS011;69423;47.608;19.366;2024-01-07T02:37:00;9.90;;;9.90;;
80115;SDS011;69423;47.608;19.366;2024-01-07T02:37:31;10.13;;;9.97;;
80115;SDS011;69423;47.608;19.366;2024-01-07T02:38:02;10.73;;;10.53;;
80115;SDS011;69423;47.608;19.366;2024-01-07T02:38:33;9.60;;;9.53;;
80115;SDS011;69423;47.608;19.366;2024-01-07T02:39:04;10.20;;;10.00;;
80115;SDS011;69423;47.608;19.366;2024-01-07T02:39:35;11.13;;;10.87;;
80115;SDS011;69423;47.608;19.366;2024-01-07T02:40:06;10.97;;;10.73;;
80115;SDS011;69423;47.608;19.366;2024-01-07T02:40:37;10.73;;;10.53;;
80115;SDS011;69423;47.608;19.366;2024-01-07T02:41:08;11.03;;;10.73;;
80115;SDS011;69423;47.608;19.366;2024-01-07T02:41:39;10.77;;;10.77;;
80115;SDS011;69423;47.608;19.366;2024-01-07T02:42:10;10.47;;;10.47;;
80115;SDS011;69423;47.608;19.366;2024-01-07T02:42:41;10.50;;;10.43;;
80115;SDS011;69423;47.608;19.366;2024-01-07T02:43:12;11.07;;;10.77;;
80115;SDS011;69423;47.608;19.366;2024-01-07T02:43:43;10.80;;;10.60;;
80115;SDS011;69423;47.608;19.366;2024-01-07T02:44:15;10.83;;;10.67;;
80115;SDS011;69423;47.608;19.366;2024-01-07T02:44:46;10.53;;;10.20;;
80115;SDS011;69423;47.608;19.366;2024-01-07T02:45:17;10.47;;;10.13;;
80115;SDS011;69423;47.608;19.366;2024-01-07T02:45:48;11.03;;;10.70;;
80115;SDS011;69423;47.608;19.366;2024-01-07T02:46:19;11.30;;;11.17;;
80115;SDS011;69423;47.608;19.366;2024-01-07T02:46:51;10.93;;;10.73;;
80115;SDS011;69423;47.608;19.366;2024-01-07T02:47:22;10.67;;;10.47;;
80115;SDS011;69423;47.608;19.366;2024-01-07T02:47:53;10.97;;;10.63;;
80115;SDS011;69423;47.608;19.366;2024-01-07T02:48:24;11.10;;;10.80;;
80115;SDS011;69423;47.608;19.366;2024-01-07T02:48:55;11.17;;;11.03;;
80115;SDS011;69423;47.608;19.366;2024-01-07T02:49:26;11.23;;;11.03;;
80115;SDS011;69423;47.608;19.366;2024-01-07T02:49:58;10.97;;;10.67;;
80115;SDS011;69423;47.608;19.366;2024-01-07T02:50:29;12.33;;;11.97;;
80115;SDS011;69423;47.608;19.366;2024-01-07T02:51:00;13.03;;;12.63;;
80115;SDS011;69423;47.608;19.366;2024-01-07T02:51:33;12.33;;;11.93;;
80115;SDS011;69423;47.608;19.366;2024-01-07T02:52:05;12.07;;;11.70;;
80115;SDS011;69423;47.608;19.366;2024-01-07T02:52:36;11.70;;;11.20;;
80115;SDS011;69423;47.608;19.366;2024-01-07T02:53:07;11.80;;;11.40;;
80115;SDS011;69423;47.608;19.366;2024-01-07T02:53:38;11.40;;;11.03;;
80115;SDS011;69423;47.608;19.366;2024-01-07T02:54:10;11.07;;;10.77;;
80115;SDS011;69423;47.608;19.366;2024-01-07T02:54:41;10.77;;;10.47;;
80115;SDS011;69423;47.608;19.366;2024-01-07T02:55:12;11.13;;;10.87;;
80115;SDS011;69423;47.608;19.366;2024-01-07T02:55:43;11.60;;;11.33;;
80115;SDS011;69423;47.608;19.366;2024-01-07T02:56:14;11.07;;;10.93;;
80115;SDS011;69423;47.608;19.366;2024-01-07T02:56:45;11.30;;;11.07;;
80115;SDS011;69423;47.608;19.366;2024-01-07T02:57:16;11.13;;;10.93;;
80115;SDS011;69423;47.608;19.366;2024-01-07T02:57:47;10.93;;;10.77;;
80115;SDS011;69423;47.608;19.366;2024-01-07T02:58:18;10.87;;;10.63;;
80115;SDS011;69423;47.608;19.366;2024-01-07T02:58:49;11.30;;;11.10;;
80115;SDS011;69423;47.608;19.366;2024-01-07T02:59:20;11.80;;;11.57;;
80115;SDS011;69423;47.608;19.366;2024-01-07T02:59:51;10.93;;;10.87;;
80115;SDS011;69423;47.608;19.366;2024-01-07T03:00:22;10.57;;;10.37;;
80115;SDS011;69423;47.608;19.366;2024-01-07T03:00:53;10.30;;;10.23;;
80115;SDS011;69423;47.608;19.366;2024-01-07T03:01:24;10.07;;;10.07;;